Time;durP1;ratioP1;P1;durP2;ratioP2;P2;SDS_P1;SDS_P2;PMS_P1;PMS_P2;Temp;Humidity;BMP_temperature;BMP_pressure;BME280_temperature;BME280_humidity;BME280_pressure;Samples;Min_cycle;Max_cycle;Signal;HPM_P1;HPM_P2
2022/03/11 00:00:39;;;;;;;45.97;27.58;;;;;;;;;;5052038;28;20041;-65
2022/03/11 00:03:05;;;;;;;25.48;14.80;;;;;;;;;;5052045;28;20025;-65
2022/03/11 00:05:48;;;;;;;27.33;16.33;;;;;;;;;;5051775;28;20041;-68
2022/03/11 00:08:26;;;;;;;39.17;26.10;;;;;;;;;;5050861;28;20033;-61
2022/03/11 00:10:52;;;;;;;32.00;21.45;;;;;;;;;;5051570;28;20056;-61
2022/03/11 00:13:17;;;;;;;26.98;18.90;;;;;;;;;;5055420;28;20490;-61
2022/03/11 00:15:43;;;;;;;18.23;12.60;;;;;;;;;;5056302;28;20032;-61
2022/03/11 00:18:09;;;;;;;34.55;22.00;;;;;;;;;;5054936;28;20048;-61
2022/03/11 00:20:34;;;;;;;18.50;11.38;;;;;;;;;;5056068;28;20394;-61
2022/03/11 00:23:00;;;;;;;19.95;11.23;;;;;;;;;;5054170;28;20045;-61
2022/03/11 00:25:46;;;;;;;17.90;10.52;;;;;;;;;;5055964;28;20055;-61
2022/03/11 00:28:20;;;;;;;19.17;12.75;;;;;;;;;;5054560;28;20021;-62
2022/03/11 00:30:46;;;;;;;19.60;11.27;;;;;;;;;;5054404;28;20032;-61
2022/03/11 00:33:12;;;;;;;20.50;12.02;;;;;;;;;;5056113;28;20021;-61
2022/03/11 00:35:39;;;;;;;27.10;14.93;;;;;;;;;;5054701;28;20025;-61
2022/03/11 00:38:05;;;;;;;23.45;13.85;;;;;;;;;;5056050;28;20033;-61
2022/03/11 00:40:30;;;;;;;23.52;14.15;;;;;;;;;;5056257;28;20063;-61
2022/03/11 00:42:56;;;;;;;24.73;14.30;;;;;;;;;;5055232;28;20021;-61
2022/03/11 00:45:22;;;;;;;23.10;13.77;;;;;;;;;;5054554;28;20096;-61
2022/03/11 00:47:48;;;;;;;21.10;12.77;;;;;;;;;;5055632;28;20150;-61
2022/03/11 00:50:13;;;;;;;21.67;12.80;;;;;;;;;;5055265;28;20021;-65
2022/03/11 00:52:40;;;;;;;22.02;12.63;;;;;;;;;;5055144;28;20036;-65
2022/03/11 00:55:05;;;;;;;20.17;13.00;;;;;;;;;;5055079;28;20017;-65
2022/03/11 00:57:31;;;;;;;20.67;12.88;;;;;;;;;;5054007;28;20029;-65
2022/03/11 00:59:56;;;;;;;21.70;13.02;;;;;;;;;;5054242;28;20345;-65
2022/03/11 01:02:23;;;;;;;20.40;12.98;;;;;;;;;;5055094;28;20055;-65
2022/03/11 01:04:49;;;;;;;27.88;16.17;;;;;;;;;;5055157;28;20467;-65
2022/03/11 01:07:16;;;;;;;22.73;13.52;;;;;;;;;;5055462;28;20044;-65
2022/03/11 01:09:41;;;;;;;22.67;13.13;;;;;;;;;;5053287;28;20016;-65
2022/03/11 01:12:07;;;;;;;18.27;11.82;;;;;;;;;;5054388;28;20479;-65
2022/03/11 01:14:32;;;;;;;20.60;12.40;;;;;;;;;;5054341;28;20017;-65
2022/03/11 01:16:58;;;;;;;23.08;13.15;;;;;;;;;;5052740;28;20363;-64
2022/03/11 01:19:23;;;;;;;22.15;13.30;;;;;;;;;;5054071;28;20024;-64
2022/03/11 01:21:49;;;;;;;23.25;13.18;;;;;;;;;;5054885;28;20033;-60
2022/03/11 01:24:14;;;;;;;23.02;13.80;;;;;;;;;;5054148;28;20053;-61
2022/03/11 01:26:40;;;;;;;22.02;13.63;;;;;;;;;;5055006;28;20032;-61
2022/03/11 01:29:05;;;;;;;23.45;13.57;;;;;;;;;;5054886;28;20017;-61
2022/03/11 01:31:32;;;;;;;20.90;11.85;;;;;;;;;;5054629;28;20037;-61
2022/03/11 01:33:57;;;;;;;16.33;9.93;;;;;;;;;;5037014;28;20359;-61
2022/03/11 01:36:23;;;;;;;17.15;10.55;;;;;;;;;;5054772;28;20112;-61
2022/03/11 01:38:48;;;;;;;15.48;10.05;;;;;;;;;;5054595;28;20355;-61
2022/03/11 01:41:14;;;;;;;15.52;11.15;;;;;;;;;;5054714;28;20037;-61
2022/03/11 01:44:10;;;;;;;18.48;10.70;;;;;;;;;;5053235;28;20040;-61
2022/03/11 01:46:35;;;;;;;15.77;10.07;;;;;;;;;;5049137;28;20499;-61
2022/03/11 01:49:02;;;;;;;15.85;9.48;;;;;;;;;;5054730;28;20104;-61
2022/03/11 01:51:29;;;;;;;18.77;10.45;;;;;;;;;;5054755;28;20115;-61
2022/03/11 01:53:55;;;;;;;16.73;10.18;;;;;;;;;;5054182;28;20387;-61
2022/03/11 01:56:21;;;;;;;15.95;9.45;;;;;;;;;;5054316;28;20037;-61
2022/03/11 01:58:54;;;;;;;19.13;12.23;;;;;;;;;;5053193;28;20025;-61
2022/03/11 02:01:22;;;;;;;14.05;9.35;;;;;;;;;;5054218;28;20047;-65
2022/03/11 02:03:47;;;;;;;13.63;9.80;;;;;;;;;;5053896;28;20455;-64
2022/03/11 02:06:13;;;;;;;13.98;8.90;;;;;;;;;;5053728;28;20040;-65
2022/03/11 02:08:39;;;;;;;21.67;11.73;;;;;;;;;;5053176;28;20099;-65
2022/03/11 02:11:05;;;;;;;18.70;10.73;;;;;;;;;;5052240;28;20048;-65
2022/03/11 02:13:47;;;;;;;18.40;10.43;;;;;;;;;;5053044;28;20375;-64
2022/03/11 02:16:13;;;;;;;14.98;9.38;;;;;;;;;;5053034;28;20036;-65
2022/03/11 02:18:39;;;;;;;19.20;10.48;;;;;;;;;;5052918;28;20078;-65
2022/03/11 02:21:04;;;;;;;30.75;13.57;;;;;;;;;;5053095;28;20128;-65
2022/03/11 02:23:35;;;;;;;33.03;15.60;;;;;;;;;;5051336;28;20160;-65
2022/03/11 02:26:01;;;;;;;30.10;15.50;;;;;;;;;;5053520;28;20032;-65
2022/03/11 02:28:33;;;;;;;33.45;15.88;;;;;;;;;;5053295;28;20113;-65
2022/03/11 02:30:58;;;;;;;22.50;11.93;;;;;;;;;;5052641;28;20398;-66
2022/03/11 02:33:26;;;;;;;16.77;10.10;;;;;;;;;;5052536;28;20044;-65
2022/03/11 02:35:52;;;;;;;17.98;10.23;;;;;;;;;;5051487;28;20467;-65
2022/03/11 02:38:17;;;;;;;24.50;12.52;;;;;;;;;;5052389;28;20549;-65
2022/03/11 02:40:42;;;;;;;18.85;10.82;;;;;;;;;;5052834;28;20044;-65
2022/03/11 02:43:08;;;;;;;17.60;10.75;;;;;;;;;;5052818;28;20032;-65
2022/03/11 02:45:33;;;;;;;19.55;10.80;;;;;;;;;;5052671;28;20099;-65
2022/03/11 02:47:58;;;;;;;18.33;11.32;;;;;;;;;;5051081;28;20017;-65
2022/03/11 02:50:24;;;;;;;15.60;9.50;;;;;;;;;;5052349;28;20033;-65
2022/03/11 02:52:49;;;;;;;21.25;11.93;;;;;;;;;;5053111;28;20017;-65
2022/03/11 02:55:15;;;;;;;18.25;10.45;;;;;;;;;;5052302;28;20439;-65
2022/03/11 02:57:40;;;;;;;16.35;9.45;;;;;;;;;;5051989;28;20074;-66
2022/03/11 03:00:06;;;;;;;15.38;9.82;;;;;;;;;;5053068;28;20456;-65
2022/03/11 03:02:32;;;;;;;15.95;9.70;;;;;;;;;;5052300;28;20021;-66
2022/03/11 03:04:57;;;;;;;15.30;8.80;;;;;;;;;;5052652;28;20056;-66
2022/03/11 03:07:23;;;;;;;14.90;8.90;;;;;;;;;;5052216;28;20021;-65
2022/03/11 03:09:50;;;;;;;19.17;13.25;;;;;;;;;;5053388;28;20029;-61
2022/03/11 03:12:15;;;;;;;35.47;31.52;;;;;;;;;;5053174;28;20435;-64
2022/03/11 03:14:41;;;;;;;28.70;24.38;;;;;;;;;;5053254;28;20053;-63
2022/03/11 03:17:06;;;;;;;21.00;16.45;;;;;;;;;;5051956;28;20012;-63
2022/03/11 03:19:32;;;;;;;48.85;40.72;;;;;;;;;;5052037;28;20582;-60
2022/03/11 03:21:57;;;;;;;56.03;46.22;;;;;;;;;;5053407;28;20524;-61
2022/03/11 03:24:23;;;;;;;49.88;44.63;;;;;;;;;;5052937;28;20048;-61
2022/03/11 03:26:49;;;;;;;312.70;225.80;;;;;;;;;;5051585;28;20017;-61
2022/03/11 03:29:14;;;;;;;248.18;196.05;;;;;;;;;;5051344;28;20467;-65
2022/03/11 03:31:39;;;;;;;133.10;63.15;;;;;;;;;;5052654;28;20032;-65
2022/03/11 03:34:05;;;;;;;212.98;82.80;;;;;;;;;;5051410;28;20479;-64
2022/03/11 03:36:30;;;;;;;118.75;42.17;;;;;;;;;;5052401;28;20021;-64
2022/03/11 03:38:56;;;;;;;230.93;77.07;;;;;;;;;;5051039;28;20029;-64
2022/03/11 03:41:23;;;;;;;250.07;80.97;;;;;;;;;;5051194;28;20021;-65
2022/03/11 03:43:49;;;;;;;180.90;66.88;;;;;;;;;;5051370;28;20040;-65
2022/03/11 03:46:15;;;;;;;194.85;69.45;;;;;;;;;;5052474;28;20522;-65
2022/03/11 03:48:40;;;;;;;64.78;28.10;;;;;;;;;;5053938;28;20437;-64
2022/03/11 03:51:06;;;;;;;132.65;52.25;;;;;;;;;;5056460;28;20414;-64
2022/03/11 03:53:31;;;;;;;193.10;76.30;;;;;;;;;;5056130;28;20029;-64
2022/03/11 03:55:57;;;;;;;78.03;34.13;;;;;;;;;;5055428;28;20021;-64
2022/03/11 03:58:22;;;;;;;41.55;18.52;;;;;;;;;;5056273;28;20040;-64
2022/03/11 04:00:48;;;;;;;36.80;17.38;;;;;;;;;;5055745;28;20039;-64
2022/03/11 04:03:13;;;;;;;54.00;22.83;;;;;;;;;;5055606;28;20021;-65
2022/03/11 04:05:39;;;;;;;142.70;57.75;;;;;;;;;;5055612;28;20086;-64
2022/03/11 04:08:04;;;;;;;112.05;45.40;;;;;;;;;;5055654;28;20122;-64
2022/03/11 04:10:30;;;;;;;35.53;16.73;;;;;;;;;;5055388;28;20443;-64
2022/03/11 04:12:57;;;;;;;43.05;20.35;;;;;;;;;;5056317;28;20026;-61
2022/03/11 04:15:22;;;;;;;82.72;36.55;;;;;;;;;;5056520;28;20009;-61
2022/03/11 04:17:47;;;;;;;95.22;40.75;;;;;;;;;;5056480;28;20471;-61
2022/03/11 04:20:14;;;;;;;61.58;27.83;;;;;;;;;;5056439;28;20025;-62
2022/03/11 04:22:44;;;;;;;93.50;44.08;;;;;;;;;;5054044;28;20440;-62
2022/03/11 04:25:10;;;;;;;32.47;16.98;;;;;;;;;;5056796;28;20108;-61
2022/03/11 04:27:36;;;;;;;34.78;18.42;;;;;;;;;;5056243;28;20178;-61
2022/03/11 04:30:02;;;;;;;18.98;11.80;;;;;;;;;;5055934;28;20119;-61
2022/03/11 04:32:30;;;;;;;26.17;14.48;;;;;;;;;;5054666;28;20497;-61
2022/03/11 04:34:56;;;;;;;23.88;14.40;;;;;;;;;;5056009;28;20013;-61
2022/03/11 04:37:21;;;;;;;23.90;15.57;;;;;;;;;;5056209;28;20082;-61
2022/03/11 04:39:47;;;;;;;33.72;19.85;;;;;;;;;;5055893;28;20021;-60
2022/03/11 04:42:12;;;;;;;29.30;19.50;;;;;;;;;;5054853;28;20490;-61
2022/03/11 04:44:38;;;;;;;19.13;13.05;;;;;;;;;;5055837;28;20021;-61
2022/03/11 04:47:04;;;;;;;24.88;16.38;;;;;;;;;;5055720;28;20032;-61
2022/03/11 04:49:29;;;;;;;14.57;10.50;;;;;;;;;;5055889;28;20028;-61
2022/03/11 04:51:55;;;;;;;24.23;14.57;;;;;;;;;;5055801;28;20029;-61
2022/03/11 04:54:21;;;;;;;24.98;15.02;;;;;;;;;;5055722;28;20024;-61
2022/03/11 04:56:46;;;;;;;18.05;11.93;;;;;;;;;;5054170;28;20044;-62
2022/03/11 04:59:12;;;;;;;21.73;13.43;;;;;;;;;;5036393;28;20017;-61
2022/03/11 05:01:38;;;;;;;18.42;11.90;;;;;;;;;;5055170;28;20523;-61
2022/03/11 05:04:03;;;;;;;19.80;13.57;;;;;;;;;;5055334;28;20108;-61
2022/03/11 05:06:28;;;;;;;19.75;11.75;;;;;;;;;;5055314;28;20103;-61
2022/03/11 05:08:55;;;;;;;18.75;13.13;;;;;;;;;;5055447;28;20020;-61
2022/03/11 05:11:20;;;;;;;22.00;14.93;;;;;;;;;;5055521;28;20061;-61
2022/03/11 05:13:46;;;;;;;16.95;11.68;;;;;;;;;;5055156;28;20498;-64
2022/03/11 05:16:11;;;;;;;38.00;24.85;;;;;;;;;;5053542;28;20442;-65
2022/03/11 05:18:37;;;;;;;44.80;31.55;;;;;;;;;;5055132;28;20025;-64
2022/03/11 05:21:03;;;;;;;61.83;38.90;;;;;;;;;;5055229;28;20047;-65
2022/03/11 05:23:28;;;;;;;172.25;113.72;;;;;;;;;;5054779;28;20498;-65
2022/03/11 05:25:54;;;;;;;225.48;139.82;;;;;;;;;;5054990;28;20340;-65
2022/03/11 05:28:21;;;;;;;53.28;34.47;;;;;;;;;;5054628;28;20104;-65
2022/03/11 05:30:46;;;;;;;22.23;15.73;;;;;;;;;;5052816;28;20120;-65
2022/03/11 05:33:12;;;;;;;51.20;42.85;;;;;;;;;;5054966;28;20024;-64
2022/03/11 05:35:38;;;;;;;21.00;15.52;;;;;;;;;;5054815;28;20478;-65
2022/03/11 05:38:03;;;;;;;22.38;17.73;;;;;;;;;;5054413;28;20116;-65
2022/03/11 05:40:29;;;;;;;20.63;16.27;;;;;;;;;;5054464;28;20032;-65
2022/03/11 05:42:54;;;;;;;20.27;13.40;;;;;;;;;;5046541;28;20025;-66
2022/03/11 05:45:20;;;;;;;21.67;13.95;;;;;;;;;;5051484;28;20079;-64
2022/03/11 05:47:45;;;;;;;28.38;19.45;;;;;;;;;;5054119;28;20021;-64
2022/03/11 05:50:11;;;;;;;25.13;15.63;;;;;;;;;;5054178;28;20033;-64
2022/03/11 05:52:40;;;;;;;22.30;13.30;;;;;;;;;;5054240;28;20024;-65
2022/03/11 05:55:06;;;;;;;25.33;15.52;;;;;;;;;;5054103;28;20032;-64
2022/03/11 06:01:06;;;;;;;20.92;12.05;;;;;;;;;;5054557;28;20142;-65
2022/03/11 06:07:07;;;;;;;18.75;12.80;;;;;;;;;;5054359;28;20055;-64
2022/03/11 06:13:08;;;;;;;16.30;10.70;;;;;;;;;;5054560;28;20027;-64
2022/03/11 06:19:09;;;;;;;19.55;12.63;;;;;;;;;;5054504;28;20071;-65
2022/03/11 06:29:12;;;;;;;;;;;;;;;;;;5054795;28;20120;-65
2022/03/11 06:31:38;;;;;;;17.17;10.68;;;;;;;;;;5052375;28;20374;-65
2022/03/11 06:34:03;;;;;;;16.17;10.60;;;;;;;;;;5052916;28;20059;-65
2022/03/11 06:36:29;;;;;;;14.65;9.07;;;;;;;;;;5053413;28;20036;-65
2022/03/11 06:38:55;;;;;;;17.52;12.10;;;;;;;;;;5053409;28;20021;-65
2022/03/11 06:41:21;;;;;;;22.92;13.02;;;;;;;;;;5053418;28;20044;-66
2022/03/11 06:43:46;;;;;;;15.57;9.98;;;;;;;;;;5053350;28;20028;-66
2022/03/11 06:46:17;;;;;;;14.68;10.73;;;;;;;;;;5052159;28;20029;-65
2022/03/11 06:48:43;;;;;;;23.60;13.23;;;;;;;;;;5053218;28;20021;-65
2022/03/11 06:51:08;;;;;;;13.93;9.32;;;;;;;;;;5053157;28;20047;-65
2022/03/11 06:53:36;;;;;;;14.68;9.48;;;;;;;;;;5053121;28;20490;-65
2022/03/11 06:56:01;;;;;;;12.40;9.23;;;;;;;;;;5051761;28;20027;-65
2022/03/11 06:58:27;;;;;;;13.63;8.75;;;;;;;;;;5053025;28;20430;-64
2022/03/11 07:00:52;;;;;;;11.75;8.45;;;;;;;;;;5053088;28;20017;-74
2022/03/11 07:03:18;;;;;;;11.85;9.18;;;;;;;;;;5053053;28;20497;-64
2022/03/11 07:05:43;;;;;;;10.90;7.53;;;;;;;;;;5052949;28;20025;-64
2022/03/11 07:08:10;;;;;;;11.00;7.63;;;;;;;;;;5052919;28;20112;-64
2022/03/11 07:10:35;;;;;;;12.38;8.38;;;;;;;;;;5052999;28;20053;-64
2022/03/11 07:13:01;;;;;;;11.05;7.97;;;;;;;;;;5052981;28;20597;-64
2022/03/11 07:15:26;;;;;;;10.13;7.22;;;;;;;;;;5052914;28;20562;-64
2022/03/11 07:17:52;;;;;;;10.77;7.32;;;;;;;;;;5052989;28;20128;-64
2022/03/11 07:20:17;;;;;;;9.60;7.57;;;;;;;;;;5053069;28;20025;-64
2022/03/11 07:22:47;;;;;;;9.10;6.65;;;;;;;;;;5055018;28;20074;-64
2022/03/11 07:25:17;;;;;;;9.10;7.53;;;;;;;;;;5056649;28;20044;-64
2022/03/11 07:27:42;;;;;;;12.60;8.85;;;;;;;;;;5056539;28;20128;-64
2022/03/11 07:30:11;;;;;;;9.73;7.30;;;;;;;;;;5056757;28;20030;-64
2022/03/11 07:32:37;;;;;;;13.27;9.50;;;;;;;;;;5056916;28;20025;-64
2022/03/11 07:35:02;;;;;;;13.65;9.65;;;;;;;;;;5056796;28;20013;-64
2022/03/11 07:37:28;;;;;;;26.42;18.27;;;;;;;;;;5056749;28;20037;-64
2022/03/11 07:39:53;;;;;;;12.15;9.65;;;;;;;;;;5056661;28;20020;-64
2022/03/11 07:42:19;;;;;;;10.60;7.88;;;;;;;;;;5056591;28;20029;-64
2022/03/11 07:44:44;;;;;;;13.88;8.85;;;;;;;;;;5056519;28;20083;-64
2022/03/11 07:47:10;;;;;;;17.45;11.23;;;;;;;;;;5056480;28;20043;-64
2022/03/11 07:49:35;;;;;;;74.70;38.25;;;;;;;;;;5055249;28;20134;-64
2022/03/11 07:52:02;;;;;;;10.63;7.93;;;;;;;;;;5056413;28;20017;-64
2022/03/11 07:54:28;;;;;;;13.73;10.35;;;;;;;;;;5056505;28;20012;-63
2022/03/11 07:56:54;;;;;;;10.77;8.38;;;;;;;;;;5056324;28;20466;-64
2022/03/11 07:59:19;;;;;;;37.13;24.40;;;;;;;;;;5056299;28;20029;-64
2022/03/11 08:01:46;;;;;;;23.13;17.55;;;;;;;;;;5056346;28;20057;-64
2022/03/11 08:04:13;;;;;;;15.52;12.32;;;;;;;;;;5056304;28;20016;-64
2022/03/11 08:06:42;;;;;;;66.47;38.72;;;;;;;;;;5056126;28;20052;-64
2022/03/11 08:09:09;;;;;;;42.85;22.60;;;;;;;;;;5056248;28;20069;-64
2022/03/11 08:11:34;;;;;;;131.77;74.32;;;;;;;;;;5054954;28;20025;-64
2022/03/11 08:14:00;;;;;;;37.17;22.02;;;;;;;;;;5056199;28;20010;-64
2022/03/11 08:16:25;;;;;;;63.28;46.67;;;;;;;;;;5055906;28;20438;-64
2022/03/11 08:18:51;;;;;;;39.00;33.08;;;;;;;;;;5054750;28;20552;-64
2022/03/11 08:21:16;;;;;;;15.35;8.07;;;;;;;;;;5056210;28;20379;-65
2022/03/11 08:23:42;;;;;;;13.35;11.18;;;;;;;;;;5055283;28;20398;-64
2022/03/11 08:26:10;;;;;;;14.55;10.98;;;;;;;;;;5054845;28;20045;-64
2022/03/11 08:28:36;;;;;;;12.82;8.85;;;;;;;;;;5056050;28;20056;-64
2022/03/11 08:31:02;;;;;;;12.50;7.70;;;;;;;;;;5055793;28;20079;-65
2022/03/11 08:33:30;;;;;;;12.00;7.72;;;;;;;;;;5055810;28;20017;-66
2022/03/11 08:35:57;;;;;;;9.68;7.40;;;;;;;;;;5054365;28;20094;-66
2022/03/11 08:38:22;;;;;;;8.85;6.50;;;;;;;;;;5055684;28;20017;-65
2022/03/11 08:40:48;;;;;;;10.85;6.72;;;;;;;;;;5055658;28;20406;-66
2022/03/11 08:43:13;;;;;;;8.48;5.43;;;;;;;;;;5055491;28;20028;-66
2022/03/11 08:45:39;;;;;;;7.03;5.50;;;;;;;;;;5055505;28;20040;-64
2022/03/11 08:48:05;;;;;;;10.30;6.55;;;;;;;;;;5055294;28;20032;-65
2022/03/11 08:50:31;;;;;;;9.02;6.18;;;;;;;;;;5055399;28;20112;-65
2022/03/11 08:52:56;;;;;;;10.80;6.15;;;;;;;;;;5055309;28;20060;-65
2022/03/11 08:55:22;;;;;;;6.93;5.13;;;;;;;;;;5055195;28;20025;-65
2022/03/11 08:57:51;;;;;;;11.30;6.70;;;;;;;;;;5055322;28;20021;-64
2022/03/11 09:00:18;;;;;;;8.30;5.90;;;;;;;;;;5054029;28;20025;-64
2022/03/11 09:02:44;;;;;;;10.45;7.00;;;;;;;;;;5055066;28;20017;-64
2022/03/11 09:05:10;;;;;;;9.02;6.45;;;;;;;;;;5055024;28;20395;-65
2022/03/11 09:07:36;;;;;;;15.73;9.38;;;;;;;;;;5055036;28;20017;-65
2022/03/11 09:10:07;;;;;;;14.07;9.05;;;;;;;;;;5054972;28;20032;-65
2022/03/11 09:12:33;;;;;;;9.73;6.65;;;;;;;;;;5054887;28;20112;-65
2022/03/11 09:14:58;;;;;;;10.57;6.20;;;;;;;;;;5053149;28;20049;-65
2022/03/11 09:17:24;;;;;;;7.57;5.68;;;;;;;;;;5054521;28;20029;-65
2022/03/11 09:19:50;;;;;;;7.03;5.80;;;;;;;;;;5054938;28;20369;-65
2022/03/11 09:22:17;;;;;;;9.05;6.00;;;;;;;;;;5054986;28;20510;-65
2022/03/11 09:24:44;;;;;;;6.00;5.07;;;;;;;;;;5054213;28;20095;-65
2022/03/11 09:27:11;;;;;;;11.48;6.35;;;;;;;;;;5054681;28;20078;-64
2022/03/11 09:29:37;;;;;;;11.38;6.43;;;;;;;;;;5053364;28;20024;-65
2022/03/11 09:32:03;;;;;;;7.20;5.22;;;;;;;;;;5053276;28;20387;-65
2022/03/11 09:34:29;;;;;;;8.15;4.80;;;;;;;;;;5054758;28;20482;-65
2022/03/11 09:36:54;;;;;;;6.22;5.30;;;;;;;;;;5054702;28;20041;-65
2022/03/11 09:39:21;;;;;;;6.07;4.72;;;;;;;;;;5054492;28;20032;-64
2022/03/11 09:41:46;;;;;;;10.10;6.18;;;;;;;;;;5054477;28;20122;-64
2022/03/11 09:44:24;;;;;;;7.65;5.55;;;;;;;;;;5052996;28;20032;-65
2022/03/11 09:46:50;;;;;;;6.10;4.95;;;;;;;;;;5054319;28;20029;-65
2022/03/11 09:49:16;;;;;;;7.63;4.47;;;;;;;;;;5054355;28;20025;-65
2022/03/11 09:51:43;;;;;;;6.63;4.60;;;;;;;;;;5054268;28;20453;-65
2022/03/11 09:54:09;;;;;;;11.50;7.22;;;;;;;;;;5054281;28;20031;-65
2022/03/11 09:56:35;;;;;;;6.50;4.80;;;;;;;;;;5054241;28;20501;-65
2022/03/11 09:59:00;;;;;;;9.75;5.78;;;;;;;;;;5054197;28;20028;-65
2022/03/11 10:01:26;;;;;;;14.35;9.18;;;;;;;;;;5054225;28;20102;-65
2022/03/11 10:03:51;;;;;;;11.02;7.90;;;;;;;;;;5054091;28;20374;-65
2022/03/11 10:06:35;;;;;;;13.80;8.00;;;;;;;;;;5054056;28;20029;-65
2022/03/11 10:09:02;;;;;;;8.43;5.18;;;;;;;;;;5054013;28;20067;-64
2022/03/11 10:11:27;;;;;;;5.43;4.07;;;;;;;;;;5053816;28;20013;-64
2022/03/11 10:13:53;;;;;;;5.82;4.60;;;;;;;;;;5053359;28;20432;-65
2022/03/11 10:16:26;;;;;;;10.55;6.53;;;;;;;;;;5053726;28;20036;-65
2022/03/11 10:18:55;;;;;;;6.10;5.25;;;;;;;;;;5053679;28;20037;-65
2022/03/11 10:21:23;;;;;;;7.45;4.97;;;;;;;;;;5053652;28;20017;-65
2022/03/11 10:23:49;;;;;;;8.63;6.30;;;;;;;;;;5053488;28;20114;-65
2022/03/11 10:26:29;;;;;;;10.18;6.07;;;;;;;;;;5053735;28;20072;-65
2022/03/11 10:28:58;;;;;;;5.80;5.20;;;;;;;;;;5052414;28;20029;-65
2022/03/11 10:31:31;;;;;;;8.38;5.20;;;;;;;;;;5053548;28;20040;-65
2022/03/11 10:34:15;;;;;;;11.85;7.40;;;;;;;;;;5053559;28;20024;-65
2022/03/11 10:36:47;;;;;;;5.68;4.90;;;;;;;;;;5053511;28;20033;-65
2022/03/11 10:39:14;;;;;;;6.72;5.38;;;;;;;;;;5053594;28;20024;-65
2022/03/11 10:41:39;;;;;;;7.72;5.28;;;;;;;;;;5053390;28;20104;-65
2022/03/11 10:44:09;;;;;;;6.70;5.45;;;;;;;;;;5053354;28;20204;-65
2022/03/11 10:46:34;;;;;;;8.45;7.65;;;;;;;;;;5053394;28;20017;-65
2022/03/11 10:49:02;;;;;;;17.67;11.90;;;;;;;;;;5053390;28;20110;-70
2022/03/11 10:51:28;;;;;;;142.05;72.25;;;;;;;;;;5051735;28;20063;-64
2022/03/11 10:53:55;;;;;;;10.50;6.53;;;;;;;;;;5053122;28;20021;-65
2022/03/11 10:56:29;;;;;;;16.67;12.63;;;;;;;;;;5052402;28;20021;-65
2022/03/11 10:58:56;;;;;;;17.05;12.18;;;;;;;;;;5053158;28;20039;-65
2022/03/11 11:01:41;;;;;;;8.13;7.25;;;;;;;;;;5052065;28;20033;-65
2022/03/11 11:04:09;;;;;;;8.00;6.68;;;;;;;;;;5053046;28;20090;-65
2022/03/11 11:06:35;;;;;;;10.10;8.20;;;;;;;;;;5052703;28;20402;-65
2022/03/11 11:09:02;;;;;;;9.20;6.43;;;;;;;;;;5053070;28;20036;-65
2022/03/11 11:11:28;;;;;;;7.78;5.93;;;;;;;;;;5051863;28;20020;-64
2022/03/11 11:13:55;;;;;;;5.93;5.00;;;;;;;;;;5052833;28;20029;-65
2022/03/11 11:16:24;;;;;;;6.93;5.65;;;;;;;;;;5052969;28;20040;-65
2022/03/11 11:18:51;;;;;;;6.07;4.40;;;;;;;;;;5052944;28;20083;-65
2022/03/11 11:21:24;;;;;;;9.30;7.07;;;;;;;;;;5052778;28;20100;-65
2022/03/11 11:23:55;;;;;;;6.45;5.28;;;;;;;;;;5051426;28;20083;-65
2022/03/11 11:26:24;;;;;;;11.15;5.05;;;;;;;;;;5052984;28;20032;-65
2022/03/11 11:28:52;;;;;;;34.43;27.23;;;;;;;;;;5051719;28;20108;-65
2022/03/11 11:31:18;;;;;;;6.82;4.47;;;;;;;;;;5052674;28;20025;-65
2022/03/11 11:33:47;;;;;;;12.45;9.82;;;;;;;;;;5052857;28;20078;-65
2022/03/11 11:36:12;;;;;;;30.50;23.80;;;;;;;;;;5051601;28;20368;-65
2022/03/11 11:38:42;;;;;;;10.60;7.35;;;;;;;;;;5052799;28;20047;-65
2022/03/11 11:41:16;;;;;;;34.85;31.38;;;;;;;;;;5052736;28;20017;-65
2022/03/11 11:43:51;;;;;;;4.88;4.10;;;;;;;;;;5052677;28;20112;-65
2022/03/11 11:46:19;;;;;;;3.40;2.50;;;;;;;;;;5052622;28;20220;-65
2022/03/11 11:48:45;;;;;;;10.07;5.55;;;;;;;;;;5052634;28;20013;-65
2022/03/11 11:51:15;;;;;;;6.35;4.05;;;;;;;;;;5052709;28;20040;-65
2022/03/11 11:53:42;;;;;;;3.45;2.67;;;;;;;;;;5052703;28;20029;-65
2022/03/11 11:56:27;;;;;;;5.47;3.78;;;;;;;;;;5052459;28;20009;-65
2022/03/11 11:58:53;;;;;;;6.05;3.30;;;;;;;;;;5052464;28;20116;-65
2022/03/11 12:01:40;;;;;;;4.30;3.65;;;;;;;;;;5052630;28;20060;-65
2022/03/11 12:04:25;;;;;;;8.07;7.28;;;;;;;;;;5052631;28;20029;-65
2022/03/11 12:06:55;;;;;;;7.10;4.57;;;;;;;;;;5052443;28;20032;-65
2022/03/11 12:09:42;;;;;;;2.75;2.53;;;;;;;;;;5055355;28;20025;-65
2022/03/11 12:12:16;;;;;;;2.80;2.60;;;;;;;;;;5054859;28;20458;-64
2022/03/11 12:14:57;;;;;;;3.35;3.05;;;;;;;;;;5056270;28;20017;-64
2022/03/11 12:17:38;;;;;;;3.25;2.95;;;;;;;;;;5056029;28;20433;-64
2022/03/11 12:20:03;;;;;;;;;;;;;;;;;;5055099;28;20460;-64
2022/03/11 12:22:31;;;;;;;4.70;3.20;;;;;;;;;;5055903;28;19954;-64
2022/03/11 12:25:00;;;;;;;4.30;3.47;;;;;;;;;;5055273;28;20502;-64
2022/03/11 12:27:45;;;;;;;4.22;3.22;;;;;;;;;;5054574;28;20032;-64
2022/03/11 12:30:10;;;;;;;5.85;4.57;;;;;;;;;;5055792;28;20052;-64
2022/03/11 12:32:38;;;;;;;11.57;6.70;;;;;;;;;;5055673;28;20055;-65
2022/03/11 12:35:04;;;;;;;7.60;4.70;;;;;;;;;;5055790;28;20025;-64
2022/03/11 12:37:31;;;;;;;74.97;31.38;;;;;;;;;;5055675;28;20086;-65
2022/03/11 12:39:57;;;;;;;7.47;6.15;;;;;;;;;;5055700;28;20025;-65
2022/03/11 12:42:42;;;;;;;50.28;19.35;;;;;;;;;;5054470;28;20025;-65
2022/03/11 12:45:08;;;;;;;5.18;4.50;;;;;;;;;;5055543;28;20095;-65
2022/03/11 12:47:37;;;;;;;19.63;10.52;;;;;;;;;;5054156;28;20029;-65
2022/03/11 12:50:04;;;;;;;13.20;7.17;;;;;;;;;;5055514;28;20378;-65
2022/03/11 12:52:37;;;;;;;26.83;12.07;;;;;;;;;;5055663;28;20417;-64
2022/03/11 12:55:19;;;;;;;22.05;12.50;;;;;;;;;;5054537;28;20278;-65
2022/03/11 12:57:44;;;;;;;12.90;8.05;;;;;;;;;;5055142;28;20132;-65
2022/03/11 13:00:18;;;;;;;11.20;7.13;;;;;;;;;;5055531;28;20033;-64
2022/03/11 13:02:43;;;;;;;;;;;;;;;;;;5055060;28;20534;-64
2022/03/11 13:05:31;;;;;;;7.20;4.15;;;;;;;;;;5055364;28;19992;-64
2022/03/11 13:08:07;;;;;;;11.40;4.50;;;;;;;;;;5055496;28;20036;-64
2022/03/11 13:10:33;;;;;;;6.85;3.95;;;;;;;;;;5054954;28;20459;-64
2022/03/11 13:12:59;;;;;;;4.25;3.10;;;;;;;;;;5054795;28;20017;-64
2022/03/11 13:15:35;;;;;;;9.05;6.78;;;;;;;;;;5054918;28;20108;-64
2022/03/11 13:18:01;;;;;;;5.25;3.83;;;;;;;;;;5054900;28;20032;-64
2022/03/11 13:20:29;;;;;;;3.45;3.00;;;;;;;;;;5054158;28;20021;-64
2022/03/11 13:22:55;;;;;;;2.22;1.98;;;;;;;;;;5054789;28;20510;-65
2022/03/11 13:25:28;;;;;;;4.45;3.13;;;;;;;;;;5053427;28;20049;-64
2022/03/11 13:27:54;;;;;;;5.25;3.60;;;;;;;;;;5054631;28;20116;-64
2022/03/11 13:30:30;;;;;;;6.85;3.95;;;;;;;;;;5054689;28;20024;-64
2022/03/11 13:32:56;;;;;;;5.32;3.70;;;;;;;;;;5054512;28;20494;-64
2022/03/11 13:35:29;;;;;;;4.60;2.25;;;;;;;;;;5054539;28;20021;-64
2022/03/11 13:37:55;;;;;;;3.47;2.97;;;;;;;;;;5054418;28;20502;-65
2022/03/11 13:40:20;;;;;;;3.38;2.70;;;;;;;;;;5054718;28;20025;-64
2022/03/11 13:42:55;;;;;;;5.43;3.13;;;;;;;;;;5054609;28;20486;-65
2022/03/11 13:45:26;;;;;;;10.68;7.15;;;;;;;;;;5054706;28;20035;-64
2022/03/11 13:48:08;;;;;;;7.13;4.72;;;;;;;;;;5054439;28;20082;-64
2022/03/11 13:50:37;;;;;;;7.05;4.47;;;;;;;;;;5050812;28;20028;-64
2022/03/11 13:53:03;;;;;;;5.07;4.57;;;;;;;;;;5051289;28;20032;-64
2022/03/11 13:55:33;;;;;;;9.30;7.07;;;;;;;;;;5054331;28;20039;-66
2022/03/11 13:58:15;;;;;;;12.02;7.90;;;;;;;;;;5054322;28;20486;-64
2022/03/11 14:00:41;;;;;;;12.32;8.60;;;;;;;;;;5054537;28;20060;-63
2022/03/11 14:03:20;;;;;;;6.43;5.68;;;;;;;;;;5054568;28;20025;-63
2022/03/11 14:05:46;;;;;;;8.88;7.72;;;;;;;;;;5054434;28;20032;-63
2022/03/11 14:08:14;;;;;;;7.28;4.20;;;;;;;;;;5053693;28;20025;-63
2022/03/11 14:10:43;;;;;;;8.10;4.22;;;;;;;;;;5054345;28;20033;-66
2022/03/11 14:13:09;;;;;;;3.72;3.40;;;;;;;;;;5054440;28;20422;-66
2022/03/11 14:15:39;;;;;;;10.73;3.83;;;;;;;;;;5053274;28;20490;-63
2022/03/11 14:18:10;;;;;;;8.85;6.53;;;;;;;;;;5053185;28;20043;-72
2022/03/11 14:20:36;;;;;;;5.63;5.10;;;;;;;;;;5053020;28;20029;-64
2022/03/11 14:23:02;;;;;;;8.48;5.70;;;;;;;;;;5052809;28;20383;-65
2022/03/11 14:25:28;;;;;;;5.25;4.65;;;;;;;;;;5053883;28;20044;-65
2022/03/11 14:27:55;;;;;;;5.88;4.43;;;;;;;;;;5053967;28;20021;-65
2022/03/11 14:30:22;;;;;;;7.20;5.15;;;;;;;;;;5053950;28;20015;-64
2022/03/11 14:32:49;;;;;;;9.48;6.97;;;;;;;;;;5053709;28;20431;-65
2022/03/11 14:35:14;;;;;;;7.28;4.75;;;;;;;;;;5053721;28;20103;-65
2022/03/11 14:37:41;;;;;;;5.18;4.20;;;;;;;;;;5053831;28;20036;-65
2022/03/11 14:40:07;;;;;;;19.15;8.88;;;;;;;;;;5053849;28;20013;-64
2022/03/11 14:42:35;;;;;;;6.90;4.75;;;;;;;;;;5052532;28;20518;-65
2022/03/11 14:45:08;;;;;;;10.15;5.60;;;;;;;;;;5053281;28;20021;-65
2022/03/11 14:47:48;;;;;;;37.88;29.52;;;;;;;;;;5053241;28;20033;-64
2022/03/11 14:50:14;;;;;;;10.98;6.40;;;;;;;;;;5053202;28;20111;-65
2022/03/11 14:52:41;;;;;;;13.15;9.90;;;;;;;;;;5053187;28;20028;-65